Time;durP1;ratioP1;P1;durP2;ratioP2;P2;SDS_P1;SDS_P2;PMS_P1;PMS_P2;Temp;Humidity;BMP_temperature;BMP_pressure;BME280_temperature;BME280_humidity;BME280_pressure;Samples;Min_cycle;Max_cycle;Signal;HPM_P1;HPM_P2
2023/07/09 00:00:15;;;;;;;3.40;1.67;;;19.70;95.30;;;;;;5092405;28;20191;-72
2023/07/09 00:02:41;;;;;;;5.37;2.30;;;19.70;95.30;;;;;;5076687;28;20503;-72
2023/07/09 00:05:11;;;;;;;3.67;1.43;;;19.70;95.20;;;;;;5071909;28;20839;-72
2023/07/09 00:07:37;;;;;;;7.50;2.20;;;19.70;95.30;;;;;;5070983;28;20184;-72
2023/07/09 00:10:02;;;;;;;4.10;1.70;;;19.70;95.40;;;;;;5068827;28;20419;-72
2023/07/09 00:12:28;;;;;;;4.77;2.13;;;19.60;95.40;;;;;;5071278;28;20222;-72
2023/07/09 00:14:54;;;;;;;5.63;1.97;;;19.60;95.50;;;;;;5071825;28;20200;-72
2023/07/09 00:17:33;;;;;;;3.60;2.10;;;19.60;95.70;;;;;;5071469;28;20185;-72
2023/07/09 00:19:59;;;;;;;3.30;1.83;;;19.50;95.70;;;;;;5071467;28;20891;-72
2023/07/09 00:22:26;;;;;;;4.53;2.07;;;19.50;95.70;;;;;;5068405;28;20550;-72
2023/07/09 00:24:56;;;;;;;9.40;2.37;;;19.50;95.90;;;;;;5077266;28;20181;-72
2023/07/09 00:27:25;;;;;;;4.93;2.83;;;19.40;96.10;;;;;;5085380;28;20553;-72
2023/07/09 00:29:54;;;;;;;5.60;2.10;;;19.40;96.20;;;;;;5072012;28;20464;-72
2023/07/09 00:32:21;;;;;;;4.00;2.10;;;19.40;96.10;;;;;;5085381;28;20815;-73
2023/07/09 00:34:50;;;;;;;3.30;1.77;;;19.40;96.20;;;;;;5074164;28;20449;-73
2023/07/09 00:37:18;;;;;;;3.47;1.80;;;19.40;96.30;;;;;;5064170;28;20756;-72
2023/07/09 00:39:45;;;;;;;4.20;1.83;;;19.40;96.60;;;;;;5081198;28;20426;-73
2023/07/09 00:42:17;;;;;;;4.60;1.93;;;19.40;96.60;;;;;;5071771;28;20555;-72
2023/07/09 00:44:45;;;;;;;3.83;2.10;;;19.30;96.60;;;;;;5072609;28;20416;-72
2023/07/09 00:47:19;;;;;;;5.40;1.50;;;19.30;96.90;;;;;;5091597;28;20495;-72
2023/07/09 00:49:47;;;;;;;3.40;2.00;;;19.20;97.10;;;;;;5074804;28;20875;-72
2023/07/09 00:52:35;;;;;;;3.23;1.53;;;19.20;97.20;;;;;;5070001;28;20425;-72
2023/07/09 00:55:16;;;;;;;3.10;1.70;;;19.20;97.20;;;;;;5070731;28;20435;-73
2023/07/09 00:57:43;;;;;;;5.50;2.17;;;19.20;96.90;;;;;;5070858;28;20588;-72
2023/07/09 01:00:14;;;;;;;8.17;2.00;;;19.30;97.10;;;;;;5079538;28;20426;-72
2023/07/09 01:02:44;;;;;;;5.83;2.23;;;19.10;97.30;;;;;;5073936;28;20903;-73
2023/07/09 01:05:13;;;;;;;5.30;1.80;;;19.10;97.50;;;;;;5070757;28;20928;-73
2023/07/09 01:07:39;;;;;;;3.57;2.00;;;19.10;97.60;;;;;;5066171;28;20446;-73
2023/07/09 01:10:06;;;;;;;3.20;1.50;;;19.10;97.80;;;;;;5069289;28;20423;-72
2023/07/09 01:12:32;;;;;;;7.10;1.70;;;19.00;98.00;;;;;;5070028;28;20424;-72
2023/07/09 01:14:59;;;;;;;3.00;1.30;;;18.90;98.00;;;;;;5070726;28;20422;-73
2023/07/09 01:17:28;;;;;;;4.90;2.40;;;18.90;97.90;;;;;;5070486;28;20268;-73
2023/07/09 01:19:55;;;;;;;5.37;2.10;;;18.90;98.20;;;;;;5070706;28;20609;-73
2023/07/09 01:22:22;;;;;;;4.60;2.57;;;18.90;98.20;;;;;;5067806;28;20424;-73
2023/07/09 01:25:06;;;;;;;12.30;2.27;;;18.80;98.50;;;;;;5070986;28;20473;-73
2023/07/09 01:27:33;;;;;;;3.93;1.47;;;18.80;98.60;;;;;;5064844;28;20426;-73
2023/07/09 01:29:59;;;;;;;4.63;2.10;;;18.70;99.00;;;;;;5090555;28;20452;-73
2023/07/09 01:32:26;;;;;;;7.37;2.10;;;18.70;99.00;;;;;;5070039;28;20918;-73
2023/07/09 01:34:57;;;;;;;4.47;2.57;;;18.70;99.00;;;;;;5070470;28;20467;-73
2023/07/09 01:37:27;;;;;;;3.47;1.97;;;18.70;98.80;;;;;;5077895;28;20475;-72
2023/07/09 01:39:53;;;;;;;12.80;2.07;;;18.70;99.00;;;;;;5075393;28;20430;-73
2023/07/09 01:42:21;;;;;;;3.70;2.03;;;18.80;99.10;;;;;;5078573;28;20469;-73
2023/07/09 01:44:47;;;;;;;4.27;1.90;;;18.80;99.10;;;;;;5090483;28;20549;-73
2023/07/09 01:47:13;;;;;;;15.63;2.30;;;18.70;99.30;;;;;;5072808;28;20428;-72
2023/07/09 01:49:39;;;;;;;12.93;2.07;;;18.70;99.40;;;;;;5054772;28;20418;-73
2023/07/09 01:52:10;;;;;;;4.10;2.57;;;18.70;99.50;;;;;;5088382;28;20181;-73
2023/07/09 01:54:37;;;;;;;4.60;2.27;;;18.60;99.60;;;;;;5066794;28;20768;-73
2023/07/09 01:57:15;;;;;;;6.03;2.53;;;18.50;99.90;;;;;;5070232;28;20477;-72
2023/07/09 01:59:41;;;;;;;4.70;2.03;;;18.50;99.90;;;;;;5070361;28;20513;-72
2023/07/09 02:02:08;;;;;;;3.53;1.77;;;18.40;99.90;;;;;;5069620;28;20501;-72
2023/07/09 02:04:33;;;;;;;3.27;1.83;;;18.40;99.90;;;;;;5070253;28;20423;-72
2023/07/09 02:06:59;;;;;;;8.80;3.33;;;18.40;99.90;;;;;;5069222;28;20419;-73
2023/07/09 02:09:25;;;;;;;6.73;3.23;;;18.30;99.90;;;;;;5065619;28;20208;-73
2023/07/09 02:11:50;;;;;;;4.30;2.13;;;18.30;99.90;;;;;;5064557;28;20660;-73
2023/07/09 02:14:16;;;;;;;4.50;2.80;;;18.30;99.90;;;;;;5068271;28;20217;-72
2023/07/09 02:16:43;;;;;;;3.30;1.80;;;18.20;99.90;;;;;;5077039;28;20563;-73
2023/07/09 02:19:09;;;;;;;5.40;2.40;;;18.20;99.90;;;;;;5077558;28;20192;-73
2023/07/09 02:21:34;;;;;;;6.30;2.60;;;18.20;99.90;;;;;;5093034;28;20504;-73
2023/07/09 02:24:00;;;;;;;3.97;2.47;;;18.20;99.90;;;;;;5078762;28;20191;-73
2023/07/09 02:26:25;;;;;;;5.47;2.40;;;18.20;99.90;;;;;;5085744;28;20221;-73
2023/07/09 02:28:51;;;;;;;3.90;1.93;;;18.20;99.90;;;;;;5093989;28;20222;-73
2023/07/09 02:31:16;;;;;;;4.07;2.30;;;18.20;99.90;;;;;;5093519;28;20184;-73
2023/07/09 02:33:42;;;;;;;6.80;2.40;;;18.20;99.90;;;;;;5090006;28;20185;-73
2023/07/09 02:36:08;;;;;;;6.03;2.70;;;18.20;99.90;;;;;;5083418;28;20255;-73
2023/07/09 02:38:33;;;;;;;8.00;2.77;;;18.20;99.90;;;;;;5093645;28;20225;-73
2023/07/09 02:40:59;;;;;;;5.33;2.33;;;18.10;99.90;;;;;;5093305;28;20244;-73
2023/07/09 02:43:25;;;;;;;3.57;1.83;;;18.10;99.90;;;;;;5070534;28;20263;-72
2023/07/09 02:45:50;;;;;;;14.23;2.87;;;18.00;99.90;;;;;;5073512;28;20181;-72
2023/07/09 02:48:16;;;;;;;9.30;3.03;;;17.90;99.90;;;;;;5083864;28;20698;-73
2023/07/09 02:50:41;;;;;;;10.13;1.90;;;17.90;99.90;;;;;;5083379;28;20184;-73
2023/07/09 02:53:07;;;;;;;4.80;2.67;;;17.90;99.90;;;;;;5078221;28;20169;-72
2023/07/09 02:55:34;;;;;;;5.90;2.50;;;17.90;99.90;;;;;;5064197;28;20511;-73
2023/07/09 02:57:59;;;;;;;4.40;2.30;;;17.80;99.90;;;;;;5078967;28;20177;-72
2023/07/09 03:00:25;;;;;;;4.00;2.30;;;17.80;99.90;;;;;;5074294;28;20458;-72
2023/07/09 03:02:51;;;;;;;6.30;1.80;;;17.80;99.90;;;;;;5085159;28;20180;-73
2023/07/09 03:05:16;;;;;;;4.00;2.20;;;17.80;99.90;;;;;;5064111;28;20311;-73
2023/07/09 03:07:42;;;;;;;4.97;2.30;;;17.80;99.90;;;;;;5066798;28;20184;-72
2023/07/09 03:10:08;;;;;;;8.20;2.43;;;17.80;99.90;;;;;;5064769;28;20629;-73
2023/07/09 03:12:33;;;;;;;4.70;2.30;;;17.80;99.90;;;;;;5067682;28;20275;-73
2023/07/09 03:14:59;;;;;;;6.40;2.27;;;17.80;99.90;;;;;;5063278;28;20307;-73
2023/07/09 03:17:24;;;;;;;4.20;2.40;;;17.80;99.90;;;;;;5076522;28;20331;-73
2023/07/09 03:19:50;;;;;;;4.57;2.30;;;17.80;99.90;;;;;;5073946;28;21123;-72
2023/07/09 03:22:16;;;;;;;4.57;2.70;;;17.70;99.90;;;;;;5077470;28;20451;-73
2023/07/09 03:24:42;;;;;;;5.00;1.93;;;17.70;99.90;;;;;;5077874;28;20189;-72
2023/07/09 03:27:09;;;;;;;3.73;2.10;;;17.70;99.90;;;;;;5089477;28;20207;-73
2023/07/09 03:29:34;;;;;;;6.90;2.53;;;17.70;99.90;;;;;;5092541;28;20798;-72
2023/07/09 03:32:00;;;;;;;5.50;2.33;;;17.60;99.90;;;;;;5092381;28;20533;-73
2023/07/09 03:34:26;;;;;;;7.67;2.60;;;17.60;99.90;;;;;;5093055;28;20203;-73
2023/07/09 03:36:51;;;;;;;6.17;2.37;;;17.60;99.90;;;;;;5091928;28;20193;-73
2023/07/09 03:39:17;;;;;;;4.57;2.30;;;17.70;99.90;;;;;;5092713;28;20191;-73
2023/07/09 03:41:42;;;;;;;4.90;1.87;;;17.70;99.90;;;;;;5092106;28;20352;-73
2023/07/09 03:44:08;;;;;;;7.07;2.73;;;17.80;99.90;;;;;;5092680;28;20203;-73
2023/07/09 03:46:34;;;;;;;5.70;2.67;;;17.60;99.90;;;;;;5092507;28;20176;-73
2023/07/09 03:49:00;;;;;;;6.00;2.87;;;17.60;99.90;;;;;;5092856;28;20234;-73
2023/07/09 03:51:25;;;;;;;5.40;2.50;;;17.70;99.90;;;;;;5091234;28;20200;-72
2023/07/09 03:53:51;;;;;;;4.23;2.40;;;17.70;99.90;;;;;;5086335;28;20617;-72
2023/07/09 03:56:17;;;;;;;4.23;2.63;;;17.70;99.90;;;;;;5089978;28;20190;-73
2023/07/09 03:58:42;;;;;;;8.67;3.33;;;17.70;99.90;;;;;;5081281;28;20624;-73
2023/07/09 04:01:08;;;;;;;5.83;2.50;;;17.80;99.90;;;;;;5091411;28;20192;-73
2023/07/09 04:03:34;;;;;;;5.83;2.87;;;17.90;99.90;;;;;;5092297;28;20180;-73
2023/07/09 04:05:59;;;;;;;3.90;1.83;;;17.80;99.90;;;;;;5091701;28;20259;-73
2023/07/09 04:08:28;;;;;;;6.13;2.47;;;17.80;99.90;;;;;;5073097;28;20188;-73
2023/07/09 04:10:56;;;;;;;9.37;2.97;;;17.80;99.90;;;;;;5075112;28;20204;-72
2023/07/09 04:13:22;;;;;;;4.53;2.37;;;17.90;99.90;;;;;;5082471;28;20844;-73
2023/07/09 04:15:47;;;;;;;4.73;2.47;;;17.90;99.90;;;;;;5085711;28;20549;-73
2023/07/09 04:18:13;;;;;;;5.73;2.60;;;17.90;99.90;;;;;;5083066;28;20213;-73
2023/07/09 04:20:39;;;;;;;7.67;2.33;;;18.00;99.90;;;;;;5087617;28;20629;-73
2023/07/09 04:23:06;;;;;;;7.50;3.20;;;18.00;99.90;;;;;;5078615;28;20177;-73
2023/07/09 04:25:31;;;;;;;5.80;2.47;;;18.10;99.90;;;;;;5078896;28;20176;-73
2023/07/09 04:27:57;;;;;;;3.00;1.77;;;18.10;99.90;;;;;;5091908;28;20422;-73
2023/07/09 04:30:23;;;;;;;6.07;2.60;;;18.20;99.90;;;;;;5091620;28;20652;-73
2023/07/09 04:32:49;;;;;;;6.23;2.87;;;18.20;99.90;;;;;;5091458;28;20176;-73
2023/07/09 04:35:15;;;;;;;4.80;2.23;;;18.20;99.90;;;;;;5091592;28;20173;-73
2023/07/09 04:37:42;;;;;;;5.37;2.53;;;18.30;99.90;;;;;;5088658;28;20429;-73
2023/07/09 04:40:10;;;;;;;18.73;3.10;;;18.30;99.90;;;;;;5091483;28;20669;-73
2023/07/09 04:42:37;;;;;;;11.43;4.17;;;18.40;99.90;;;;;;5090415;28;20509;-73
2023/07/09 04:45:03;;;;;;;8.80;2.77;;;18.60;99.90;;;;;;5091612;28;20430;-73
2023/07/09 04:47:29;;;;;;;5.63;2.70;;;18.70;99.90;;;;;;5091491;28;20533;-73
2023/07/09 04:49:54;;;;;;;8.90;2.87;;;18.80;99.90;;;;;;5091235;28;20521;-73
2023/07/09 04:52:21;;;;;;;5.30;2.30;;;18.90;99.90;;;;;;5090481;28;20249;-73
2023/07/09 04:54:47;;;;;;;5.53;2.80;;;19.00;99.90;;;;;;5091316;28;20187;-73
2023/07/09 04:57:13;;;;;;;5.30;2.03;;;19.00;99.90;;;;;;5091300;28;20418;-73
2023/07/09 04:59:38;;;;;;;12.57;3.23;;;19.00;99.90;;;;;;5091306;28;20214;-73
2023/07/09 05:02:04;;;;;;;2.53;1.87;;;19.10;99.90;;;;;;5090638;28;20208;-73
2023/07/09 05:04:31;;;;;;;5.07;2.30;;;19.20;99.90;;;;;;5091213;28;20263;-73
2023/07/09 05:06:57;;;;;;;6.03;2.30;;;19.30;99.90;;;;;;5082390;28;20455;-73
2023/07/09 05:09:23;;;;;;;3.80;2.00;;;19.50;99.90;;;;;;5073726;28;20991;-73
2023/07/09 05:11:50;;;;;;;4.77;1.80;;;19.60;99.90;;;;;;5070808;28;20435;-73
2023/07/09 05:14:16;;;;;;;4.33;2.67;;;19.60;99.90;;;;;;5088396;28;20177;-73
2023/07/09 05:16:42;;;;;;;5.40;2.43;;;19.70;99.90;;;;;;5091473;28;20501;-73
2023/07/09 05:19:08;;;;;;;3.47;2.40;;;19.80;99.90;;;;;;5077362;28;20285;-72
2023/07/09 05:21:34;;;;;;;7.50;2.63;;;19.90;99.90;;;;;;5090238;28;20490;-72
2023/07/09 05:24:00;;;;;;;4.37;2.10;;;20.00;99.90;;;;;;5075212;28;20183;-72
2023/07/09 05:26:25;;;;;;;8.73;3.13;;;20.00;99.90;;;;;;5082994;28;20418;-73
2023/07/09 05:28:51;;;;;;;6.50;2.70;;;19.90;99.90;;;;;;5091212;28;20176;-73
2023/07/09 05:31:17;;;;;;;4.77;2.30;;;20.00;99.90;;;;;;5090418;28;20183;-72
2023/07/09 05:33:42;;;;;;;4.40;2.40;;;20.00;99.90;;;;;;5090985;28;20188;-72
2023/07/09 05:36:15;;;;;;;6.07;2.93;;;20.00;99.90;;;;;;5079520;28;20237;-72
2023/07/09 05:38:43;;;;;;;7.10;2.87;;;20.00;99.90;;;;;;5079929;28;20176;-73
2023/07/09 05:41:10;;;;;;;3.63;2.13;;;20.10;99.90;;;;;;5090815;28;20914;-73
2023/07/09 05:43:35;;;;;;;6.63;2.93;;;20.20;99.90;;;;;;5091095;28;20514;-73
2023/07/09 05:46:02;;;;;;;4.57;2.70;;;20.30;99.90;;;;;;5091257;28;20480;-73
2023/07/09 05:48:28;;;;;;;3.83;1.93;;;20.40;99.90;;;;;;5091099;28;20639;-73
2023/07/09 05:50:57;;;;;;;6.63;2.07;;;20.50;99.80;;;;;;5091751;28;20427;-73
2023/07/09 05:53:23;;;;;;;2.90;2.00;;;20.60;99.60;;;;;;5093496;28;20196;-73
2023/07/09 05:55:49;;;;;;;6.67;2.50;;;20.70;99.60;;;;;;5099599;28;20517;-73
2023/07/09 05:58:14;;;;;;;4.27;1.93;;;20.70;99.70;;;;;;5100489;28;20442;-73
2023/07/09 06:00:41;;;;;;;6.60;2.73;;;20.80;99.90;;;;;;5100607;28;20196;-73
2023/07/09 06:03:07;;;;;;;6.50;2.60;;;20.80;99.90;;;;;;5100265;28;20617;-73
2023/07/09 06:05:36;;;;;;;4.73;2.00;;;20.90;99.90;;;;;;5099742;28;20418;-73
2023/07/09 06:08:02;;;;;;;4.23;2.10;;;21.10;99.50;;;;;;5082751;28;20410;-72
2023/07/09 06:10:29;;;;;;;9.40;2.40;;;21.20;99.40;;;;;;5077508;28;20781;-72
2023/07/09 06:12:57;;;;;;;8.97;3.60;;;21.30;99.10;;;;;;5054178;28;20531;-72
2023/07/09 06:15:25;;;;;;;6.90;2.47;;;21.50;99.00;;;;;;5081391;28;20775;-73
2023/07/09 06:17:50;;;;;;;5.07;2.30;;;21.70;97.80;;;;;;5073924;28;20427;-73
2023/07/09 06:20:16;;;;;;;8.00;2.40;;;21.90;96.90;;;;;;5087899;28;20457;-72
2023/07/09 06:22:41;;;;;;;4.27;2.53;;;22.10;96.90;;;;;;5083972;28;20184;-72
2023/07/09 06:25:07;;;;;;;10.60;2.10;;;22.20;96.00;;;;;;5079491;28;20177;-72
2023/07/09 06:27:33;;;;;;;3.20;1.80;;;22.40;95.40;;;;;;5094021;28;20177;-72
2023/07/09 06:29:58;;;;;;;5.83;2.50;;;22.70;94.50;;;;;;5094025;28;20188;-72
2023/07/09 06:32:24;;;;;;;6.97;2.70;;;22.80;94.40;;;;;;5093309;28;20185;-72
2023/07/09 06:34:50;;;;;;;3.47;1.90;;;22.90;94.00;;;;;;5094234;28;20184;-72
2023/07/09 06:37:16;;;;;;;3.37;1.70;;;23.10;93.30;;;;;;5093330;28;20636;-73
2023/07/09 06:39:41;;;;;;;8.20;2.43;;;23.40;92.40;;;;;;5092451;28;20222;-72
2023/07/09 06:42:07;;;;;;;4.17;1.87;;;23.50;91.90;;;;;;5093227;28;20860;-73
2023/07/09 06:44:32;;;;;;;4.37;2.10;;;23.60;91.80;;;;;;5080699;28;20229;-73
2023/07/09 06:46:58;;;;;;;4.20;2.30;;;23.80;90.80;;;;;;5093603;28;20557;-73
2023/07/09 06:49:24;;;;;;;3.27;1.40;;;23.90;90.80;;;;;;5093809;28;20206;-73
2023/07/09 06:51:49;;;;;;;3.97;2.07;;;24.00;90.40;;;;;;5092356;28;20245;-72
2023/07/09 06:54:15;;;;;;;4.67;2.30;;;24.10;90.10;;;;;;5093644;28;20249;-72
2023/07/09 06:56:41;;;;;;;4.33;2.10;;;24.30;89.90;;;;;;5093585;28;20753;-73
2023/07/09 06:59:07;;;;;;;5.10;1.97;;;24.40;88.30;;;;;;5093607;28;20746;-73
2023/07/09 07:01:32;;;;;;;5.13;2.33;;;24.50;88.80;;;;;;5087829;28;20211;-72
2023/07/09 07:03:58;;;;;;;7.77;2.20;;;24.60;88.60;;;;;;5084655;28;20271;-72
2023/07/09 07:06:23;;;;;;;2.93;1.87;;;24.70;87.60;;;;;;5088372;28;20895;-73
2023/07/09 07:08:49;;;;;;;7.13;2.13;;;24.90;87.00;;;;;;5077348;28;20216;-73
2023/07/09 07:11:15;;;;;;;5.30;2.10;;;25.20;86.70;;;;;;5076597;28;20188;-73
2023/07/09 07:13:43;;;;;;;4.83;2.20;;;25.30;86.40;;;;;;5093293;28;20187;-73
2023/07/09 07:16:11;;;;;;;5.50;2.10;;;25.50;85.20;;;;;;5092988;28;20184;-73
2023/07/09 07:18:36;;;;;;;5.10;2.30;;;25.70;85.00;;;;;;5092675;28;20803;-73
2023/07/09 07:21:02;;;;;;;4.97;2.07;;;26.00;84.40;;;;;;5087787;28;20458;-73
2023/07/09 07:23:28;;;;;;;4.93;2.10;;;26.30;82.10;;;;;;5070078;28;20185;-73
2023/07/09 07:25:55;;;;;;;4.83;1.90;;;26.60;79.60;;;;;;5085127;28;20441;-73
2023/07/09 07:28:21;;;;;;;5.60;2.27;;;26.70;79.80;;;;;;5092826;28;20493;-73
2023/07/09 07:30:46;;;;;;;9.83;3.20;;;26.90;79.90;;;;;;5092768;28;20500;-74
2023/07/09 07:33:15;;;;;;;7.80;2.47;;;27.20;78.50;;;;;;5093106;28;20504;-74
2023/07/09 07:35:41;;;;;;;6.23;1.73;;;27.50;77.20;;;;;;5085678;28;20207;-74
2023/07/09 07:38:07;;;;;;;9.73;2.33;;;27.80;76.60;;;;;;5084787;28;20207;-74
2023/07/09 07:40:32;;;;;;;15.00;1.93;;;28.10;76.20;;;;;;5085324;28;20200;-74
2023/07/09 07:42:58;;;;;;;4.13;2.35;;;28.60;73.60;;;;;;5085483;28;20175;-72
2023/07/09 07:45:24;;;;;;;7.63;1.65;;;29.30;73.00;;;;;;5092695;28;20599;-72
2023/07/09 07:47:51;;;;;;;3.85;2.15;;;30.40;67.80;;;;;;5092749;28;20176;-72
2023/07/09 07:50:17;;;;;;;5.07;2.13;;;31.20;66.60;;;;;;5092649;28;20225;-72
2023/07/09 07:52:43;;;;;;;5.18;2.67;;;32.10;64.00;;;;;;5091390;28;20191;-72
2023/07/09 07:55:09;;;;;;;5.85;2.35;;;32.60;61.80;;;;;;5092705;28;20259;-72
2023/07/09 07:57:35;;;;;;;4.82;2.20;;;32.50;61.30;;;;;;5092318;28;20225;-71
2023/07/09 08:00:00;;;;;;;5.63;2.90;;;33.10;59.40;;;;;;5092717;28;20191;-72
2023/07/09 08:02:26;;;;;;;4.43;2.10;;;33.70;57.80;;;;;;5091671;28;20208;-72
2023/07/09 08:04:52;;;;;;;4.30;1.92;;;33.60;58.00;;;;;;5092380;28;20184;-72
2023/07/09 08:07:19;;;;;;;2.80;1.80;;;33.40;58.10;;;;;;5079634;28;20180;-71
2023/07/09 08:09:46;;;;;;;5.18;2.15;;;33.90;57.10;;;;;;5076916;28;20181;-72
2023/07/09 08:12:13;;;;;;;4.70;2.55;;;34.00;55.80;;;;;;5062840;28;20181;-71
2023/07/09 08:14:40;;;;;;;4.50;1.98;;;33.60;56.80;;;;;;5062249;28;20288;-71
2023/07/09 08:17:06;;;;;;;4.75;2.20;;;33.70;57.00;;;;;;5065312;28;20195;-71
2023/07/09 08:19:32;;;;;;;3.83;2.10;;;34.10;56.40;;;;;;5066974;28;20196;-71
2023/07/09 08:21:58;;;;;;;5.82;2.00;;;34.50;55.80;;;;;;5069598;28;20219;-71
2023/07/09 08:24:23;;;;;;;5.95;2.63;;;34.70;54.80;;;;;;5070590;28;20185;-72
2023/07/09 08:26:49;;;;;;;4.65;2.58;;;34.80;54.20;;;;;;5071583;28;20191;-71
2023/07/09 08:29:15;;;;;;;8.60;3.00;;;35.00;54.20;;;;;;5071807;28;20194;-71
2023/07/09 08:31:41;;;;;;;7.82;2.55;;;35.60;53.30;;;;;;5071032;28;20181;-72
2023/07/09 08:34:08;;;;;;;5.60;2.70;;;36.10;52.80;;;;;;5071710;28;20184;-71
2023/07/09 08:36:34;;;;;;;3.55;2.70;;;36.00;52.10;;;;;;5070564;28;20272;-72
2023/07/09 08:39:02;;;;;;;7.40;2.40;;;35.50;53.10;;;;;;5071674;28;20219;-71
2023/07/09 08:41:45;;;;;;;9.25;2.20;;;35.60;52.80;;;;;;5069200;28;20295;-71
2023/07/09 08:44:16;;;;;;;6.07;3.20;;;35.50;53.30;;;;;;5072141;28;20184;-72
2023/07/09 08:46:50;;;;;;;5.43;2.50;;;35.90;52.10;;;;;;5091440;28;20531;-71
2023/07/09 08:49:23;;;;;;;5.25;2.85;;;36.00;52.40;;;;;;5091884;28;20283;-71
2023/07/09 08:51:50;;;;;;;4.97;2.47;;;35.90;51.60;;;;;;5070029;28;20192;-72
2023/07/09 08:54:28;;;;;;;6.82;2.90;;;35.90;52.10;;;;;;5071298;28;20186;-71
2023/07/09 08:56:56;;;;;;;5.13;2.17;;;35.30;52.50;;;;;;5071001;28;20266;-71
2023/07/09 08:59:22;;;;;;;5.20;2.63;;;35.30;52.10;;;;;;5071364;28;20544;-71
2023/07/09 09:01:52;;;;;;;6.53;2.50;;;35.80;51.40;;;;;;5070586;28;20216;-71
2023/07/09 09:04:24;;;;;;;3.88;1.95;;;36.00;51.00;;;;;;5071252;28;20644;-72
2023/07/09 09:07:26;;;;;;;8.90;2.65;;;36.00;51.00;;;;;;5070228;28;20173;-71
2023/07/09 09:10:01;;;;;;;4.32;2.35;;;35.50;52.50;;;;;;5064654;28;20188;-71
2023/07/09 09:12:40;;;;;;;5.18;2.47;;;35.80;51.30;;;;;;5058566;28;20988;-71
2023/07/09 09:15:18;;;;;;;4.97;2.70;;;35.80;51.80;;;;;;5071276;28;20271;-71
2023/07/09 09:17:44;;;;;;;4.68;2.17;;;36.00;51.30;;;;;;5069729;28;20216;-71
2023/07/09 09:20:17;;;;;;;6.78;3.03;;;36.10;50.60;;;;;;5071085;28;20223;-71
2023/07/09 09:23:08;;;;;;;12.32;3.45;;;36.00;50.80;;;;;;5049869;28;20217;-71
2023/07/09 09:25:39;;;;;;;15.95;2.75;;;35.80;50.60;;;;;;5059059;28;20195;-71
2023/07/09 09:28:04;;;;;;;3.30;2.25;;;35.50;51.40;;;;;;5078879;28;20566;-72
2023/07/09 09:30:30;;;;;;;3.35;2.33;;;35.40;51.90;;;;;;5075554;28;20187;-71
2023/07/09 09:33:07;;;;;;;9.23;1.67;;;35.30;51.00;;;;;;5090447;28;20267;-71
2023/07/09 09:35:35;;;;;;;3.95;2.10;;;35.40;49.60;;;;;;5071583;28;20190;-71
2023/07/09 09:38:02;;;;;;;5.78;3.10;;;35.30;49.10;;;;;;5069792;28;20206;-71
2023/07/09 09:40:34;;;;;;;3.95;2.40;;;35.00;51.10;;;;;;5069166;28;20184;-71
2023/07/09 09:43:01;;;;;;;3.97;2.42;;;35.30;51.40;;;;;;5070315;28;20169;-72
2023/07/09 09:45:32;;;;;;;13.80;3.20;;;35.60;50.10;;;;;;5070862;28;20691;-71
2023/07/09 09:48:00;;;;;;;3.85;2.00;;;35.50;49.20;;;;;;5070567;28;20202;-71
2023/07/09 09:50:31;;;;;;;6.15;2.30;;;36.00;49.30;;;;;;5070757;28;20199;-71
2023/07/09 09:52:56;;;;;;;5.82;2.20;;;35.80;49.30;;;;;;5069528;28;20211;-71
2023/07/09 09:55:29;;;;;;;4.00;2.10;;;35.70;50.40;;;;;;5070902;28;20212;-71
2023/07/09 09:57:56;;;;;;;4.43;2.60;;;35.40;49.70;;;;;;5063669;28;20174;-71
2023/07/09 10:00:25;;;;;;;2.80;1.67;;;35.40;48.90;;;;;;5077399;28;20575;-70
2023/07/09 10:02:56;;;;;;;5.93;2.05;;;35.60;48.50;;;;;;5071782;28;20168;-71
2023/07/09 10:05:31;;;;;;;6.00;2.92;;;35.20;48.20;;;;;;5068282;28;20227;-71
2023/07/09 10:08:05;;;;;;;3.63;2.28;;;35.10;48.50;;;;;;5067557;28;20176;-71
2023/07/09 10:10:33;;;;;;;6.03;2.78;;;34.90;47.00;;;;;;5070931;28;20188;-71
2023/07/09 10:13:09;;;;;;;5.15;2.10;;;34.80;48.30;;;;;;5057383;28;20202;-71
2023/07/09 10:15:40;;;;;;;4.47;2.78;;;34.90;46.00;;;;;;5070353;28;20279;-72
2023/07/09 10:18:26;;;;;;;3.53;1.98;;;35.10;45.80;;;;;;5070360;28;20169;-71
2023/07/09 10:21:33;;;;;;;4.40;2.00;;;35.10;46.00;;;;;;5069958;28;20575;-71
2023/07/09 10:24:17;;;;;;;4.13;1.92;;;34.70;46.10;;;;;;5007222;28;20181;-71
2023/07/09 10:27:00;;;;;;;5.10;2.03;;;34.60;46.60;;;;;;5060935;28;20204;-71
2023/07/09 10:29:37;;;;;;;5.20;1.60;;;34.80;47.40;;;;;;5070624;28;20212;-71
2023/07/09 10:32:19;;;;;;;7.65;2.25;;;34.40;47.60;;;;;;5070065;28;20184;-71
2023/07/09 10:35:16;;;;;;;4.00;1.98;;;34.40;48.50;;;;;;5083135;28;20570;-70
2023/07/09 10:38:00;;;;;;;5.70;1.98;;;33.90;48.30;;;;;;5056054;28;20188;-71
2023/07/09 10:40:40;;;;;;;3.50;1.63;;;34.10;48.00;;;;;;5071902;28;20318;-70
2023/07/09 10:43:16;;;;;;;7.82;2.08;;;33.60;48.20;;;;;;5083396;28;20167;-71
2023/07/09 10:45:51;;;;;;;2.63;1.38;;;33.70;49.40;;;;;;5085224;28;20180;-71
2023/07/09 10:48:25;;;;;;;3.22;1.60;;;33.80;48.60;;;;;;5073767;28;20172;-71
2023/07/09 10:50:53;;;;;;;5.05;2.08;;;34.00;48.70;;;;;;5073606;28;20181;-71
2023/07/09 10:53:42;;;;;;;4.50;2.17;;;33.60;48.30;;;;;;5072635;28;21265;-71
2023/07/09 10:56:14;;;;;;;5.22;2.10;;;33.30;48.80;;;;;;5073518;28;20223;-70
2023/07/09 10:58:52;;;;;;;3.22;1.88;;;33.50;49.30;;;;;;5073888;28;20181;-71
2023/07/09 11:01:27;;;;;;;5.25;2.20;;;33.80;47.20;;;;;;5073056;28;20551;-71
2023/07/09 11:03:59;;;;;;;8.60;2.58;;;34.00;47.70;;;;;;5074261;28;20226;-70
2023/07/09 11:06:39;;;;;;;22.80;13.07;;;34.20;48.50;;;;;;5073079;28;20181;-70
2023/07/09 11:09:14;;;;;;;10.05;5.25;;;34.20;49.70;;;;;;5072689;28;20184;-70
2023/07/09 11:11:45;;;;;;;12.50;8.57;;;34.00;47.50;;;;;;5065906;28;20208;-71
2023/07/09 11:14:47;;;;;;;5.93;3.15;;;33.70;49.90;;;;;;5073442;28;20759;-71
2023/07/09 11:17:17;;;;;;;5.07;2.20;;;33.90;50.00;;;;;;5073727;28;20188;-71
2023/07/09 11:19:48;;;;;;;6.93;2.17;;;34.10;49.30;;;;;;5072958;28;20211;-72
2023/07/09 11:22:20;;;;;;;3.38;1.85;;;34.20;48.80;;;;;;5058045;28;20193;-71
2023/07/09 11:25:11;;;;;;;7.07;2.47;;;33.90;49.60;;;;;;5075446;28;20180;-71
2023/07/09 11:27:51;;;;;;;3.38;2.17;;;33.90;49.30;;;;;;5063333;28;20204;-71
2023/07/09 11:30:26;;;;;;;7.15;2.58;;;33.80;49.40;;;;;;5078832;28;20583;-71
2023/07/09 11:32:57;;;;;;;4.50;2.38;;;33.80;47.40;;;;;;5074007;28;20185;-71
2023/07/09 11:35:27;;;;;;;3.42;1.95;;;33.80;47.20;;;;;;5071214;28;20188;-70
2023/07/09 11:37:53;;;;;;;8.52;2.92;;;34.00;47.60;;;;;;5072090;28;20207;-71
2023/07/09 11:40:20;;;;;;;5.10;2.60;;;34.30;47.30;;;;;;5067559;28;20268;-70
2023/07/09 11:42:53;;;;;;;3.38;1.90;;;34.50;46.00;;;;;;5070051;28;20181;-71
2023/07/09 11:45:25;;;;;;;9.20;2.83;;;34.30;44.70;;;;;;5072104;28;20241;-71
2023/07/09 11:48:26;;;;;;;11.73;1.92;;;34.10;45.40;;;;;;5072370;28;20542;-71
2023/07/09 11:50:54;;;;;;;5.03;2.10;;;34.10;43.20;;;;;;5028463;28;20258;-71
2023/07/09 11:53:38;;;;;;;3.08;1.67;;;34.10;44.40;;;;;;5070097;28;20254;-71
2023/07/09 11:56:04;;;;;;;5.72;2.70;;;34.10;44.70;;;;;;5072049;28;20184;-70
2023/07/09 11:58:29;;;;;;;3.92;2.30;;;33.90;44.70;;;;;;5072284;28;20199;-71
2023/07/09 12:00:57;;;;;;;5.03;2.17;;;34.00;44.60;;;;;;5071575;28;20645;-71
2023/07/09 12:03:25;;;;;;;6.82;2.72;;;34.00;45.40;;;;;;5072255;28;20276;-71
2023/07/09 12:05:54;;;;;;;5.18;2.65;;;34.00;44.30;;;;;;5072096;28;20256;-71
2023/07/09 12:08:38;;;;;;;8.02;2.75;;;34.20;45.60;;;;;;5070599;28;20195;-71
2023/07/09 12:11:05;;;;;;;4.40;2.78;;;34.30;43.40;;;;;;5067308;28;20181;-71
2023/07/09 12:13:37;;;;;;;5.53;2.88;;;34.40;41.70;;;;;;5063199;28;20180;-71
2023/07/09 12:16:03;;;;;;;5.95;2.28;;;34.50;40.10;;;;;;5076441;28;20182;-71
2023/07/09 12:18:30;;;;;;;6.53;2.65;;;34.60;42.10;;;;;;5081181;28;20593;-72
2023/07/09 12:20:55;;;;;;;14.75;2.50;;;34.50;43.10;;;;;;5084549;28;20216;-71
2023/07/09 12:23:32;;;;;;;4.93;2.40;;;34.60;43.00;;;;;;5068892;28;20246;-71
2023/07/09 12:26:02;;;;;;;5.78;2.33;;;34.70;42.90;;;;;;5066667;28;20188;-71
2023/07/09 12:28:29;;;;;;;5.47;2.38;;;34.90;43.80;;;;;;5071829;28;20652;-71
2023/07/09 12:30:55;;;;;;;6.72;2.40;;;34.70;43.10;;;;;;5071292;28;20219;-70
2023/07/09 12:33:23;;;;;;;4.05;2.33;;;34.90;43.80;;;;;;5071345;28;20243;-71
2023/07/09 12:36:03;;;;;;;5.28;2.50;;;34.90;44.70;;;;;;5071689;28;20200;-70
2023/07/09 12:38:38;;;;;;;5.80;2.85;;;34.80;44.40;;;;;;5074439;28;20324;-71
2023/07/09 12:41:04;;;;;;;5.78;2.15;;;34.40;44.10;;;;;;5079788;28;20300;-71
2023/07/09 12:43:31;;;;;;;2.97;1.58;;;34.20;44.40;;;;;;5071236;28;20187;-72
2023/07/09 12:45:59;;;;;;;3.50;2.10;;;33.90;44.70;;;;;;5071397;28;20564;-71
2023/07/09 12:48:27;;;;;;;4.07;2.00;;;33.70;44.90;;;;;;5071290;28;20172;-71
2023/07/09 12:50:56;;;;;;;4.10;2.20;;;33.50;45.20;;;;;;5071039;28;20619;-71
2023/07/09 12:53:26;;;;;;;4.75;1.80;;;33.70;45.30;;;;;;5070818;28;20611;-71